Flight Track Log - Related Links

Times and Time Zones

All times are in EDT time to prevent confusion due to time zone crossing. See the LNE1541 flight status page for this flight to view local times or setup timezone preferences in your user account.


Time Position Orientation Groundspeed Altitude Reporting Facility
EDT Latitude Longitude Course Direction KTS MPH feet Rate Location/Type
Fri 07:37:37 AM -0.5750 -78.5570 192° South 424 488 26,300  Level FlightAware ADS-B
Fri 07:38:07 AM -0.6320 -78.5690 192° South 413 475 27,600 2,314 Climbing FlightAware ADS-B
Fri 07:38:47 AM -0.7060 -78.5850 192° South 400 460 29,000 1,183 Climbing FlightAware ADS-B
Fri 07:39:18 AM -0.7580 -78.5960 192° South 398 458 29,000  Level FlightAware ADS-B
Fri 07:39:52 AM -0.8220 -78.6090 191° South 400 460 29,000  Level FlightAware ADS-B
Fri 07:40:33 AM -0.8960 -78.6240 191° South 402 463 29,000  Level FlightAware ADS-B
Fri 07:41:07 AM -0.9590 -78.6370 192° South 403 464 29,000  Level FlightAware ADS-B
Fri 07:41:47 AM -1.0330 -78.6530 192° South 403 464 29,000  Level FlightAware ADS-B
Fri 07:42:22 AM -1.0960 -78.6650 191° South 402 463 29,000  Level FlightAware ADS-B
Fri 07:43:14 AM -1.1770 -78.6760 188° South 402 463 29,000  Level FlightAware ADS-B
Fri 07:43:51 AM -1.2350 -78.6840 188° South 402 463 29,000  Level FlightAware ADS-B
Fri 07:44:22 AM -1.3130 -78.6960 189° South 402 463 29,000  Level FlightAware ADS-B
Fri 07:44:57 AM -1.3840 -78.7060 188° South 403 464 29,000  Level FlightAware ADS-B
Fri 07:45:32 AM -1.4460 -78.7150 188° South 403 464 29,000  Level FlightAware ADS-B
Fri 07:46:12 AM -1.5210 -78.7260 188° South 403 464 29,000  Level FlightAware ADS-B
Fri 07:46:48 AM -1.5880 -78.7350 188° South 403 464 29,000  Level FlightAware ADS-B
Fri 07:47:27 AM -1.6620 -78.7460 188° South 403 464 29,000  Level FlightAware ADS-B
Fri 07:47:57 AM -1.7160 -78.7540 188° South 402 463 29,000 -277 Level FlightAware ADS-B
Fri 07:48:32 AM -1.7820 -78.7630 188° South 391 450 28,700 -686 Descending FlightAware ADS-B
Fri 07:49:07 AM -1.8410 -78.7710 188° South 371 427 28,200 -1,059 Descending FlightAware ADS-B
Fri 07:49:57 AM -1.9180 -78.7830 189° South 362 417 27,200 -674 Descending FlightAware ADS-B
Fri 07:50:36 AM -1.9730 -78.7900 187° South 362 417 27,200  Level FlightAware ADS-B
Fri 07:51:13 AM -2.0250 -78.7980 189° South 362 417 27,200  Level FlightAware ADS-B
Fri 07:51:50 AM -2.0770 -78.8050 188° South 362 417 27,200 -2,338 Level FlightAware ADS-B
Fri 07:52:30 AM -2.1670 -78.8180 188° South 349 402 24,200 -3,351 Descending FlightAware ADS-B
Fri 07:53:07 AM -2.2280 -78.8270 188° South 324 373 22,900 -963 Descending FlightAware ADS-B
Fri 07:53:51 AM -2.2840 -78.8350 188° South 324 373 22,900  Level FlightAware ADS-B
Fri 07:54:28 AM -2.3300 -78.8410 187° South 324 373 22,900  Level FlightAware ADS-B
Fri 07:55:07 AM -2.3790 -78.8480 188° South 324 373 22,900  Level FlightAware ADS-B
Fri 07:55:43 AM -2.4250 -78.8550 189° South 324 373 22,900 -2,925 Level FlightAware ADS-B
Fri 07:56:27 AM -2.5180 -78.8680 188° South 300 345 19,000 -2,889 Descending FlightAware ADS-B
Fri 07:57:04 AM -2.5620 -78.8730 186° South 300 345 19,000  Level FlightAware ADS-B
Fri 07:57:40 AM -2.6040 -78.8790 188° South 300 345 19,000  Level FlightAware ADS-B
Fri 07:58:18 AM -2.6480 -78.8840 186° South 300 345 19,000  Level FlightAware ADS-B
Fri 07:59:06 AM -2.7040 -78.8910 187° South 300 345 19,000  Level FlightAware ADS-B
Fri 07:59:42 AM -2.7470 -78.8960 187° South 300 345 19,000  Level FlightAware ADS-B
Fri 08:02:00 AM -2.8895 -78.9844 212° Southwest  Level Estimated
Fri 08:03:00 AM -2.8895 -78.9844 45° Northeast  Level Estimated
Fri 08:04:00 AM -2.8895 -78.9844 45° Northeast  Level Estimated
Fri 08:05:00 AM -2.8895 -78.9844 45° Northeast  Level Estimated
Fri 08:06:00 AM -2.8895 -78.9844 45° Northeast  Level Estimated
Fri 08:07:00 AM -2.8895 -78.9844 45° Northeast  Level Estimated
Fri 08:08:00 AM -2.8895 -78.9844 45° Northeast  Level Estimated
Fri 08:09:00 AM -2.8895 -78.9844 45° Northeast  Level Estimated
Fri 08:10:00 AM -2.8895 -78.9844 45° Northeast  Level Estimated
Fri 08:11:00 AM -2.8895 -78.9844 45° Northeast  Level Estimated
Fri 08:12:00 AM -2.8895 -78.9844 45° Northeast  Level Estimated
Fri 08:13:00 AM -2.8895 -78.9844 45° Northeast  Level Estimated
Fri 08:14:00 AM -2.8895 -78.9844 45° Northeast  Level Estimated
Fri 08:15:00 AM -2.8895 -78.9844 45° Northeast  Level Estimated

Login

Don't have an account? Register now (free) for customized features, flight alerts, and more!